Time;durP1;ratioP1;P1;durP2;ratioP2;P2;SDS_P1;SDS_P2;PMS_P1;PMS_P2;Temp;Humidity;BMP_temperature;BMP_pressure;BME280_temperature;BME280_humidity;BME280_pressure;Samples;Min_cycle;Max_cycle;Signal;HPM_P1;HPM_P2
2023/07/08 00:01:18;;;;;;;9.45;8.65;;;;;;;29.52;56.49;100910.47;5058157;28;70381;-43
2023/07/08 00:03:49;;;;;;;8.77;8.27;;;;;;;29.67;55.75;100930.03;5059600;28;66186;-44
2023/07/08 00:06:23;;;;;;;9.20;8.48;;;;;;;29.55;57.20;100918.16;5059199;28;70368;-43
2023/07/08 00:08:54;;;;;;;8.95;8.18;;;;;;;29.67;57.47;100930.03;5062820;28;66208;-45
2023/07/08 00:11:26;;;;;;;8.63;8.05;;;;;;;29.49;57.12;100906.31;5060059;28;70151;-44
2023/07/08 00:13:57;;;;;;;7.85;7.35;;;;;;;29.72;57.92;100938.31;5060811;28;66837;-44
2023/07/08 00:16:29;;;;;;;10.15;8.55;;;;;;;29.76;57.90;100950.41;5063831;28;69501;-44
2023/07/08 00:19:00;;;;;;;7.70;7.22;;;;;;;29.75;57.07;100948.72;5055551;28;66575;-44
2023/07/08 00:21:31;;;;;;;9.05;8.13;;;;;;;29.79;58.73;100957.25;5059361;28;69048;-43
2023/07/08 00:24:02;;;;;;;11.35;9.68;;;;;;;29.78;61.78;100948.31;5061131;28;66274;-45
2023/07/08 00:26:36;;;;;;;14.55;12.25;;;;;;;29.98;60.98;100960.97;5063541;28;43067;-44
2023/07/08 00:29:11;;;;;;;17.63;14.90;;;;;;;29.98;65.37;100958.25;5063509;28;65602;-45
2023/07/08 00:31:42;;;;;;;24.05;16.02;;;;;;;30.03;66.73;100971.94;5056436;28;70128;-44
2023/07/08 00:34:15;;;;;;;45.80;27.17;;;;;;;29.94;69.55;100957.00;5059134;28;66099;-42
2023/07/08 00:36:46;;;;;;;61.00;36.58;;;;;;;29.91;73.15;100957.44;5059700;28;70309;-43
2023/07/08 00:39:17;;;;;;;69.35;43.65;;;;;;;30.06;74.91;100971.53;5039146;28;66803;-44
2023/07/08 00:41:50;;;;;;;78.72;50.88;;;;;;;30.07;72.58;100973.19;5033108;28;70328;-43
2023/07/08 00:44:21;;;;;;;84.03;58.92;;;;;;;30.08;75.78;100980.25;5055943;28;66729;-43
2023/07/08 00:47:03;;;;;;;103.38;68.78;;;;;;;29.67;77.59;100926.47;5042681;28;70765;-43
2023/07/08 00:50:02;;;;;;;115.45;76.65;;;;;;;30.04;78.27;101004.22;5057677;28;65942;-43
2023/07/08 00:52:34;;;;;;;97.78;67.78;;;;;;;30.15;76.82;100991.91;5036453;28;70013;-41
2023/07/08 00:55:09;;;;;;;89.75;61.47;;;;;;;30.16;76.91;100998.16;5036583;28;65150;-42
2023/07/08 00:57:44;;;;;;;95.00;58.25;;;;;;;30.27;76.77;101009.16;5050458;28;69864;-43
2023/07/08 01:00:17;;;;;;;86.43;56.38;;;;;;;30.17;77.02;101000.66;5037614;28;66397;-43
2023/07/08 01:02:54;;;;;;;74.40;48.05;;;;;;;30.12;71.09;100959.06;5054514;28;70842;-44
2023/07/08 01:05:30;;;;;;;54.00;39.53;;;;;;;29.99;69.37;100919.34;5039269;28;66536;-44
2023/07/08 01:08:05;;;;;;;51.22;36.47;;;;;;;30.64;68.33;101020.25;5055534;28;70842;-44
2023/07/08 01:10:46;;;;;;;47.08;36.40;;;;;;;30.55;68.30;101008.03;5057319;28;66310;-45
2023/07/08 01:13:21;;;;;;;52.30;35.95;;;;;;;30.61;67.50;101001.75;5057274;28;70348;-47
2023/07/08 01:15:52;;;;;;;64.72;40.90;;;;;;;30.64;68.70;101004.00;5036425;28;65954;-44
2023/07/08 01:18:25;;;;;;;60.70;39.28;;;;;;;30.77;69.87;101023.97;5053369;28;70040;-45
2023/07/08 01:20:56;;;;;;;49.35;35.53;;;;;;;30.81;70.22;101014.38;5055440;28;65171;-45
2023/07/08 01:23:28;;;;;;;51.03;33.88;;;;;;;30.80;69.98;101010.03;5057252;28;70120;-43
2023/07/08 01:26:01;;;;;;;54.75;32.80;;;;;;;30.90;69.88;101016.63;5032139;28;66387;-43
2023/07/08 01:28:32;;;;;;;45.55;29.13;;;;;;;30.89;70.85;101006.81;5048159;28;70672;-43
2023/07/08 01:31:04;;;;;;;42.92;27.25;;;;;;;30.93;70.33;101010.78;5052266;28;65268;-43
2023/07/08 01:33:36;;;;;;;38.80;25.83;;;;;;;30.97;70.38;101005.75;5048331;28;70188;-43
2023/07/08 01:36:11;;;;;;;34.47;24.77;;;;;;;30.97;71.53;101011.16;5057311;28;65764;-44
2023/07/08 01:38:43;;;;;;;30.75;22.55;;;;;;;30.89;70.22;100987.03;5053362;28;69384;-43
2023/07/08 01:41:16;;;;;;;29.50;21.35;;;;;;;30.59;70.45;100933.47;5057160;28;66053;-43
2023/07/08 01:43:48;;;;;;;27.65;20.85;;;;;;;30.97;70.22;100989.50;5054458;28;69212;-43
2023/07/08 01:46:24;;;;;;;27.60;18.80;;;;;;;30.80;72.04;100966.69;5057733;28;67668;-43
2023/07/08 01:48:58;;;;;;;14.68;13.27;;;;;;;31.01;71.69;101001.56;5056367;28;69657;-42
2023/07/08 01:51:29;;;;;;;15.23;11.40;;;;;;;31.05;71.87;101008.19;5057234;28;66306;-43
2023/07/08 01:54:00;;;;;;;14.25;11.05;;;;;;;31.07;70.96;101000.69;5040981;28;69285;-42
2023/07/08 01:56:31;;;;;;;11.82;9.20;;;;;;;31.11;72.02;100995.66;5057521;28;64723;-43
2023/07/08 01:59:02;;;;;;;8.27;7.57;;;;;;;30.98;71.81;100974.91;5055028;28;68931;-44
2023/07/08 02:01:34;;;;;;;9.23;7.50;;;;;;;31.19;70.95;100994.56;5055024;28;66814;-45
2023/07/08 02:04:05;;;;;;;7.37;6.77;;;;;;;31.21;69.79;100995.19;5030952;28;69468;-45
2023/07/08 02:06:39;;;;;;;7.32;6.72;;;;;;;31.26;69.25;100992.63;5054326;28;66161;-44
2023/07/08 02:09:11;;;;;;;6.63;6.10;;;;;;;31.32;69.29;100994.47;5057194;28;70286;-45
2023/07/08 02:11:42;;;;;;;6.78;6.30;;;;;;;31.35;68.81;101002.16;5054282;28;66568;-45
2023/07/08 02:14:13;;;;;;;6.50;6.03;;;;;;;31.37;69.10;101002.78;5059611;28;70429;-45
2023/07/08 02:16:44;;;;;;;6.83;6.23;;;;;;;31.37;68.74;101010.91;5057935;28;65992;-46
2023/07/08 02:19:15;;;;;;;6.10;5.50;;;;;;;31.43;68.65;101011.94;5055281;28;70838;-44
2023/07/08 02:21:47;;;;;;;6.55;6.07;;;;;;;31.29;68.61;100993.03;5055773;28;66304;-45
2023/07/08 02:24:18;;;;;;;7.03;6.40;;;;;;;31.46;68.38;101020.44;5056220;28;69414;-45
2023/07/08 02:26:50;;;;;;;6.10;5.70;;;;;;;31.45;68.35;101016.06;5055666;28;66083;-44
2023/07/08 02:29:21;;;;;;;8.00;5.88;;;;;;;31.44;68.18;101017.13;5036061;28;70817;-46
2023/07/08 02:31:52;;;;;;;6.00;5.50;;;;;;;31.43;68.20;101007.34;5057331;28;66699;-44
2023/07/08 02:34:24;;;;;;;5.90;5.40;;;;;;;31.38;68.08;100993.59;5056971;28;69815;-45
2023/07/08 02:36:56;;;;;;;5.90;5.50;;;;;;;31.49;67.96;101009.16;5036801;28;65653;-45
2023/07/08 02:39:27;;;;;;;6.43;5.82;;;;;;;31.59;67.79;101014.91;5058482;28;70295;-45
2023/07/08 02:41:58;;;;;;;6.60;6.20;;;;;;;31.57;67.83;101011.59;5044283;28;66535;-44
2023/07/08 02:44:29;;;;;;;5.47;5.00;;;;;;;31.64;68.00;101013.41;5060700;28;70067;-45
2023/07/08 02:47:00;;;;;;;5.68;5.20;;;;;;;31.66;68.20;101008.59;5044792;28;66068;-44
2023/07/08 02:49:31;;;;;;;4.95;4.65;;;;;;;31.48;68.10;100979.53;5043228;28;71354;-46
2023/07/08 02:52:02;;;;;;;5.23;4.93;;;;;;;31.52;68.06;100978.88;5071811;28;66013;-45
2023/07/08 02:54:34;;;;;;;5.67;5.20;;;;;;;31.71;67.93;100997.91;5043474;28;69190;-44
2023/07/08 02:57:05;;;;;;;6.10;5.38;;;;;;;31.75;68.10;101008.06;5060096;28;65615;-45
2023/07/08 02:59:36;;;;;;;5.07;4.77;;;;;;;31.60;67.77;100986.75;5059260;28;70004;-45
2023/07/08 03:02:07;;;;;;;5.07;4.78;;;;;;;31.78;67.92;101006.81;5059709;28;67120;-47
2023/07/08 03:04:39;;;;;;;5.68;5.18;;;;;;;31.78;67.83;101001.38;5058561;28;69268;-45
2023/07/08 03:07:11;;;;;;;5.78;5.30;;;;;;;31.84;67.91;101014.03;5043186;28;66929;-44
2023/07/08 03:09:43;;;;;;;5.22;4.75;;;;;;;31.86;67.83;101011.13;5061165;28;69784;-45
2023/07/08 03:12:14;;;;;;;5.47;5.05;;;;;;;31.88;67.69;101007.13;5058510;28;66445;-45
2023/07/08 03:14:45;;;;;;;5.30;4.90;;;;;;;31.91;67.92;100995.00;5042795;28;70561;-44
2023/07/08 03:17:18;;;;;;;5.32;4.82;;;;;;;31.94;67.42;100984.56;5039085;28;66534;-44
2023/07/08 03:19:50;;;;;;;9.13;4.55;;;;;;;31.99;67.60;100982.00;5060102;28;69399;-44
2023/07/08 03:22:21;;;;;;;6.13;5.07;;;;;;;31.95;67.83;100980.78;5041587;28;65554;-45
2023/07/08 03:24:53;;;;;;;5.63;5.23;;;;;;;31.97;67.78;100978.66;5052978;28;70161;-45
2023/07/08 03:27:24;;;;;;;5.25;4.82;;;;;;;32.01;67.51;100968.19;5060455;28;66190;-44
2023/07/08 03:29:55;;;;;;;5.82;5.10;;;;;;;32.02;67.52;100970.69;5025772;28;69212;-45
2023/07/08 03:32:41;;;;;;;6.03;5.53;;;;;;;32.04;67.37;100968.59;5042358;28;65956;-44
2023/07/08 03:35:17;;;;;;;5.20;4.80;;;;;;;32.07;67.50;100977.31;5056505;28;70292;-44
2023/07/08 03:37:50;;;;;;;4.88;4.25;;;;;;;32.08;67.35;100978.97;5057891;28;65875;-45
2023/07/08 03:40:37;;;;;;;4.43;4.13;;;;;;;31.96;67.26;100966.16;5042530;28;70272;-46
2023/07/08 03:43:15;;;;;;;4.30;4.00;;;;;;;31.95;67.40;100964.50;5041637;28;66488;-44
2023/07/08 03:45:52;;;;;;;4.20;3.90;;;;;;;32.10;67.41;100987.72;5058303;28;71389;-45
2023/07/08 03:48:44;;;;;;;4.32;4.03;;;;;;;31.94;67.36;100957.41;5050733;28;66579;-44
2023/07/08 03:51:36;;;;;;;4.43;4.13;;;;;;;31.87;68.05;100955.78;5059490;28;69683;-46
2023/07/08 03:54:27;;;;;;;4.80;4.40;;;;;;;32.01;68.29;100955.47;5055980;28;66328;-45
2023/07/08 03:57:20;;;;;;;4.95;4.40;;;;;;;32.00;68.94;100956.50;5054144;28;69318;-44
2023/07/08 04:00:14;;;;;;;10.95;4.82;;;;;;;32.01;68.77;100974.47;5041556;28;65361;-51
2023/07/08 04:02:59;;;;;;;6.22;4.60;;;;;;;31.98;69.44;100969.50;5046055;28;69441;-44
2023/07/08 04:05:41;;;;;;;6.45;5.10;;;;;;;31.99;69.30;100959.47;5053831;28;66567;-44
2023/07/08 04:08:32;;;;;;;5.22;4.78;;;;;;;31.94;69.59;100962.84;5058152;28;69335;-44
2023/07/08 04:11:16;;;;;;;4.30;3.90;;;;;;;31.74;69.55;100918.81;5061193;28;67394;-45
2023/07/08 04:14:11;;;;;;;5.70;4.07;;;;;;;31.87;70.31;100948.47;5032812;28;70252;-44
2023/07/08 04:16:59;;;;;;;4.47;4.07;;;;;;;31.82;70.55;100926.66;5058109;28;66431;-44
2023/07/08 04:19:51;;;;;;;4.68;4.28;;;;;;;31.98;69.98;100952.38;5025163;28;69322;-45
2023/07/08 04:22:22;;;;;;;6.18;3.88;;;;;;;31.99;70.21;100943.19;5058960;28;66099;-44
2023/07/08 04:24:53;;;;;;;4.63;4.22;;;;;;;31.95;70.06;100945.50;5055412;28;69307;-43
2023/07/08 04:27:24;;;;;;;6.50;4.60;;;;;;;31.60;70.30;100896.44;5040028;28;66159;-45
2023/07/08 04:29:55;;;;;;;6.80;4.55;;;;;;;32.02;70.62;100964.44;5057813;28;70576;-44
2023/07/08 04:32:26;;;;;;;11.37;4.57;;;;;;;32.00;70.72;100967.38;5060348;28;66478;-46
2023/07/08 04:34:57;;;;;;;5.25;3.75;;;;;;;32.04;71.09;100963.16;5057713;28;70502;-45
2023/07/08 04:37:28;;;;;;;4.40;4.00;;;;;;;32.10;70.73;100955.16;5033241;28;66091;-45
2023/07/08 04:40:00;;;;;;;4.55;3.97;;;;;;;31.94;70.31;100919.44;5054374;28;70270;-46
2023/07/08 04:42:31;;;;;;;3.35;3.13;;;;;;;32.02;69.95;100932.69;5058197;28;64915;-45
2023/07/08 04:45:05;;;;;;;6.07;3.45;;;;;;;32.17;69.77;100940.44;5062155;28;70189;-49
2023/07/08 04:47:38;;;;;;;3.50;3.20;;;;;;;32.18;69.80;100936.69;5060801;28;66849;-44
2023/07/08 04:50:11;;;;;;;3.97;3.10;;;;;;;32.17;70.14;100928.75;5053730;28;69147;-45
2023/07/08 04:52:42;;;;;;;4.10;3.17;;;;;;;32.11;69.80;100918.81;5050229;28;65818;-45
2023/07/08 04:55:13;;;;;;;4.03;3.00;;;;;;;32.01;70.02;100903.06;5058970;28;69966;-45
2023/07/08 04:57:44;;;;;;;3.45;3.15;;;;;;;32.11;70.05;100918.81;5040351;28;64984;-43
2023/07/08 05:00:19;;;;;;;3.47;3.17;;;;;;;31.50;69.87;100814.78;5054941;28;70128;-44
2023/07/08 05:02:50;;;;;;;12.45;3.00;;;;;;;32.21;70.12;100913.69;5055155;28;65433;-44
2023/07/08 05:05:22;;;;;;;9.23;2.60;;;;;;;32.04;69.97;100887.19;5055758;28;69719;-44
2023/07/08 05:07:53;;;;;;;3.43;3.13;;;;;;;32.15;70.77;100901.88;5053278;28;66803;-43
2023/07/08 05:10:24;;;;;;;6.38;3.50;;;;;;;32.04;71.69;100898.03;5056219;28;70167;-44
2023/07/08 05:12:55;;;;;;;8.00;3.37;;;;;;;32.02;71.23;100893.88;5056966;28;66090;-45
2023/07/08 05:15:26;;;;;;;3.42;3.13;;;;;;;32.10;71.40;100898.19;5056101;28;70212;-50
2023/07/08 05:17:57;;;;;;;3.85;2.97;;;;;;;32.00;71.49;100877.00;5057950;28;65982;-44
2023/07/08 05:20:30;;;;;;;5.00;2.88;;;;;;;32.03;71.82;100888.22;5058289;28;69601;-44
2023/07/08 05:23:02;;;;;;;2.92;2.67;;;;;;;32.12;71.72;100883.31;5061763;28;65564;-44
2023/07/08 05:25:34;;;;;;;3.10;2.60;;;;;;;32.09;71.74;100878.34;5059049;28;70302;-46
2023/07/08 05:28:05;;;;;;;2.30;2.10;;;;;;;31.97;71.50;100832.16;5053151;28;66825;-44
2023/07/08 05:30:36;;;;;;;2.57;2.30;;;;;;;31.79;71.71;100786.88;5060101;28;69083;-45
2023/07/08 05:33:08;;;;;;;2.53;2.33;;;;;;;32.08;71.73;100837.88;5059587;28;66471;-44
2023/07/08 05:35:39;;;;;;;2.65;2.45;;;;;;;32.19;71.88;100846.06;5038636;28;70244;-45
2023/07/08 05:38:10;;;;;;;2.97;2.55;;;;;;;32.19;72.15;100856.91;5043943;28;66033;-44
2023/07/08 05:40:41;;;;;;;2.08;1.88;;;;;;;32.20;72.20;100858.56;5059941;28;70230;-46
2023/07/08 05:43:12;;;;;;;2.45;2.25;;;;;;;32.23;72.21;100863.56;5065486;28;66031;-45
2023/07/08 05:45:44;;;;;;;5.75;2.80;;;;;;;32.16;72.78;100867.41;5067508;28;70211;-47
2023/07/08 05:48:34;;;;;;;3.08;2.70;;;;;;;32.05;73.17;100872.56;5062066;28;66250;-45
2023/07/08 05:51:05;;;;;;;2.63;2.22;;;;;;;31.92;71.43;100871.88;5069834;28;70114;-46
2023/07/08 05:53:36;;;;;;;5.78;2.70;;;;;;;31.66;69.19;100868.41;5059478;28;65514;-45
2023/07/08 05:56:07;;;;;;;2.10;2.00;;;;;;;31.71;68.31;100881.31;5049096;28;69650;-46
2023/07/08 05:58:38;;;;;;;2.60;2.25;;;;;;;31.53;66.56;100869.38;5061995;28;66663;-46
2023/07/08 06:01:09;;;;;;;2.00;1.90;;;;;;;31.41;63.94;100849.50;5049640;28;70404;-46
2023/07/08 06:03:43;;;;;;;2.10;1.90;;;;;;;31.25;62.94;100817.53;5062624;28;66420;-46
2023/07/08 06:06:15;;;;;;;2.00;1.67;;;;;;;31.31;63.77;100832.88;5070164;28;69246;-46
2023/07/08 06:08:46;;;;;;;2.55;2.33;;;;;;;31.51;62.57;100844.38;5067802;28;67233;-46
2023/07/08 06:11:17;;;;;;;2.08;1.88;;;;;;;31.40;62.13;100837.00;5063720;28;69337;-47
2023/07/08 06:13:48;;;;;;;3.08;2.47;;;;;;;31.28;60.83;100822.50;5071242;28;65443;-47
2023/07/08 06:16:19;;;;;;;2.15;1.95;;;;;;;31.08;60.02;100801.84;5041497;28;69514;-45
2023/07/08 06:19:08;;;;;;;2.17;1.70;;;;;;;30.96;58.73;100781.97;5056506;28;65433;-47
2023/07/08 06:21:39;;;;;;;2.15;1.95;;;;;;;30.55;57.78;100737.31;5061561;28;69164;-46
2023/07/08 06:24:10;;;;;;;1.85;1.70;;;;;;;30.69;57.18;100763.22;5072916;28;66602;-47
2023/07/08 06:26:42;;;;;;;1.90;1.80;;;;;;;30.77;56.43;100788.38;5065678;28;70208;-48
2023/07/08 06:29:13;;;;;;;2.97;2.35;;;;;;;30.69;55.41;100776.75;5064110;28;65334;-46
2023/07/08 06:31:44;;;;;;;2.33;2.17;;;;;;;30.64;55.39;100773.88;5064678;28;70233;-46
2023/07/08 06:34:15;;;;;;;3.70;1.90;;;;;;;30.51;54.87;100757.78;5057148;28;65426;-45
2023/07/08 06:36:46;;;;;;;2.83;2.17;;;;;;;30.53;54.61;100763.75;5060055;28;69947;-46
2023/07/08 06:39:18;;;;;;;2.20;2.00;;;;;;;30.48;53.80;100758.22;5060747;28;66201;-46
2023/07/08 06:41:48;;;;;;;;;;;;;;;30.13;50.13;100755.91;5057963;28;70391;-46
2023/07/08 06:44:25;;;;;;;2.08;1.88;;;;;;;30.27;53.08;100725.03;5033382;28;66688;-46
2023/07/08 06:46:56;;;;;;;8.45;2.17;;;;;;;30.32;52.57;100737.09;5071783;28;70839;-47
2023/07/08 06:49:27;;;;;;;2.08;1.88;;;;;;;30.23;52.30;100729.25;5068603;28;66589;-46
2023/07/08 06:52:00;;;;;;;2.75;1.92;;;;;;;30.25;52.30;100729.03;5061225;28;69212;-48
2023/07/08 06:54:31;;;;;;;2.20;1.88;;;;;;;30.27;51.56;100733.16;5060277;28;66241;-46
2023/07/08 06:57:02;;;;;;;1.57;1.40;;;;;;;30.00;51.03;100694.63;5061070;28;69861;-47
2023/07/08 06:59:34;;;;;;;2.13;1.92;;;;;;;30.17;50.47;100708.47;5054692;28;65418;-46
2023/07/08 07:02:05;;;;;;;1.80;1.70;;;;;;;30.14;50.42;100719.69;5056241;28;69545;-47
2023/07/08 07:04:37;;;;;;;;;;;;;;;29.84;47.62;100717.63;5059929;28;65761;-44
2023/07/08 07:07:08;;;;;;;1.70;1.60;;;;;;;30.05;50.43;100721.00;5042185;28;70651;-48
2023/07/08 07:09:39;;;;;;;1.92;1.83;;;;;;;30.03;49.33;100710.44;5055474;28;66822;-46
2023/07/08 07:12:10;;;;;;;1.70;1.60;;;;;;;30.01;49.67;100714.41;5061941;28;70047;-47
2023/07/08 07:14:41;;;;;;;1.67;1.57;;;;;;;30.00;49.70;100701.91;5057179;28;66796;-46
2023/07/08 07:17:16;;;;;;;2.08;1.60;;;;;;;30.00;48.85;100693.78;5060238;28;70545;-46
2023/07/08 07:19:47;;;;;;;2.13;1.93;;;;;;;29.88;48.57;100676.63;5059775;28;65643;-45
2023/07/08 07:22:18;;;;;;;2.17;1.98;;;;;;;29.90;48.93;100672.66;5056135;28;70369;-45
2023/07/08 07:24:50;;;;;;;2.05;1.85;;;;;;;29.90;49.75;100664.53;5059222;28;66689;-46
2023/07/08 07:27:21;;;;;;;8.25;1.65;;;;;;;29.89;49.72;100660.16;5057829;28;69274;-47
2023/07/08 07:29:52;;;;;;;2.13;1.60;;;;;;;29.96;49.15;100670.94;5056824;28;65874;-45
2023/07/08 07:32:24;;;;;;;1.92;1.73;;;;;;;29.76;49.04;100625.13;5057245;28;69450;-45
2023/07/08 07:34:57;;;;;;;4.22;2.05;;;;;;;29.94;48.67;100656.81;5057952;28;65294;-45
2023/07/08 07:37:28;;;;;;;1.88;1.65;;;;;;;29.91;48.75;100655.38;5054618;28;70697;-46
2023/07/08 07:39:59;;;;;;;5.55;1.92;;;;;;;29.91;48.27;100649.97;5057106;28;66443;-47
2023/07/08 07:42:30;;;;;;;5.80;2.07;;;;;;;29.75;48.03;100618.88;5057311;28;70408;-46
2023/07/08 07:45:02;;;;;;;3.35;1.95;;;;;;;29.90;48.24;100636.69;5056889;28;65661;-46
2023/07/08 07:47:33;;;;;;;1.87;1.70;;;;;;;29.88;48.47;100633.34;5056521;28;69583;-46
2023/07/08 07:50:07;;;;;;;2.45;2.25;;;;;;;29.69;47.23;100600.81;5057048;28;65522;-47
2023/07/08 07:52:38;;;;;;;1.77;1.67;;;;;;;29.97;49.14;100616.63;5056438;28;70169;-45
2023/07/08 07:55:09;;;;;;;1.63;1.50;;;;;;;30.19;52.94;100611.66;5055714;28;66206;-45
2023/07/08 07:57:41;;;;;;;4.47;1.85;;;;;;;30.36;55.37;100614.66;5054240;28;69942;-45
2023/07/08 08:00:17;;;;;;;2.20;2.00;;;;;;;30.54;57.03;100611.16;5054930;28;66571;-45
2023/07/08 08:02:48;;;;;;;2.33;2.13;;;;;;;30.64;57.87;100611.44;5054894;28;69935;-45
2023/07/08 08:05:20;;;;;;;7.60;2.45;;;;;;;30.67;58.75;100608.31;5053816;28;66806;-44
2023/07/08 08:07:51;;;;;;;2.40;2.20;;;;;;;30.91;59.31;100632.84;5055722;28;70710;-45
2023/07/08 08:10:21;;;;;;;2.55;2.35;;;;;;;31.02;59.65;100634.78;5055793;28;66609;-45
2023/07/08 08:12:53;;;;;;;2.77;2.57;;;;;;;30.96;60.68;100630.28;5056294;28;71025;-45
2023/07/08 08:15:24;;;;;;;2.50;2.23;;;;;;;31.20;61.03;100646.66;5062682;28;65380;-46
2023/07/08 08:17:55;;;;;;;2.15;2.00;;;;;;;31.23;61.32;100640.78;5059656;28;70243;-44
2023/07/08 08:20:27;;;;;;;3.55;2.00;;;;;;;31.37;61.31;100661.25;5037164;28;67858;-52
2023/07/08 08:22:59;;;;;;;3.03;2.10;;;;;;;30.98;61.78;100590.25;5055855;28;69311;-44
2023/07/08 08:25:30;;;;;;;2.40;2.20;;;;;;;31.52;62.36;100667.09;5037183;28;66038;-45
2023/07/08 08:28:01;;;;;;;3.03;2.17;;;;;;;31.53;62.63;100667.94;5057775;28;70072;-44
2023/07/08 08:30:32;;;;;;;2.53;2.33;;;;;;;31.32;70.17;100672.75;5059849;28;67181;-45
2023/07/08 08:33:04;;;;;;;2.42;2.20;;;;;;;31.23;70.77;100667.88;5056050;28;70196;-44
2023/07/08 08:35:35;;;;;;;2.50;2.30;;;;;;;31.21;71.39;100659.16;5051322;28;66042;-45
2023/07/08 08:38:06;;;;;;;3.00;2.70;;;;;;;31.24;71.78;100666.84;5053789;28;69739;-46
2023/07/08 08:40:39;;;;;;;2.83;2.50;;;;;;;31.28;71.81;100666.13;5057313;28;65842;-45
2023/07/08 08:43:19;;;;;;;2.75;2.55;;;;;;;31.16;71.95;100649.81;5052846;28;70585;-46
2023/07/08 08:46:11;;;;;;;2.58;2.20;;;;;;;31.34;71.78;100667.09;5054067;28;65948;-44
2023/07/08 08:48:48;;;;;;;;;;;;;;;31.19;72.48;100663.97;5051694;28;69987;-43
2023/07/08 08:51:19;;;;;;;6.43;3.10;;;;;;;31.23;72.58;100635.34;5063418;28;66678;-43
2023/07/08 08:53:56;;;;;;;3.42;2.92;;;;;;;30.98;72.17;100574.00;5054801;28;69676;-43
2023/07/08 08:56:39;;;;;;;3.20;3.00;;;;;;;31.37;72.76;100642.28;5054999;28;65958;-41
2023/07/08 08:59:12;;;;;;;5.85;3.72;;;;;;;31.52;72.57;100650.00;5060333;28;69953;-44
2023/07/08 09:01:45;;;;;;;5.22;4.80;;;;;;;31.41;72.72;100640.78;5057290;28;66276;-42
2023/07/08 09:04:24;;;;;;;7.88;4.80;;;;;;;31.49;72.61;100645.88;5060211;28;69791;-42
2023/07/08 09:07:14;;;;;;;6.53;6.00;;;;;;;31.26;72.88;100586.13;5065997;28;65646;-42
2023/07/08 09:09:48;;;;;;;6.88;4.28;;;;;;;31.64;72.22;100626.47;5061029;28;70380;-44
2023/07/08 09:12:26;;;;;;;4.18;3.88;;;;;;;31.09;72.28;100524.47;5066050;28;66070;-43
2023/07/08 09:14:57;;;;;;;4.65;4.25;;;;;;;31.66;72.19;100618.13;5060542;28;69649;-42
2023/07/08 09:17:33;;;;;;;5.47;3.95;;;;;;;31.23;72.60;100548.63;5058087;28;65810;-41
2023/07/08 09:20:17;;;;;;;3.58;3.30;;;;;;;31.74;72.31;100636.75;5054427;28;69811;-44
2023/07/08 09:23:16;;;;;;;4.43;3.88;;;;;;;31.16;72.09;100546.84;5061860;28;65962;-42
2023/07/08 09:26:07;;;;;;;3.33;3.03;;;;;;;31.76;71.31;100642.75;5048714;28;69298;-43
2023/07/08 09:28:44;;;;;;;2.20;1.98;;;;;;;31.19;70.22;100547.47;5060853;28;65699;-41
2023/07/08 09:31:29;;;;;;;5.30;2.13;;;;;;;31.50;70.15;100590.59;5054266;28;70501;-43
2023/07/08 09:34:11;;;;;;;1.65;1.55;;;;;;;31.13;69.48;100522.94;5055973;28;66575;-42
2023/07/08 09:36:47;;;;;;;5.57;1.40;;;;;;;30.85;69.58;100453.13;5055952;28;70949;-43
2023/07/08 09:39:20;;;;;;;2.67;1.75;;;;;;;31.38;69.85;100530.94;5058684;28;65608;-42
2023/07/08 09:41:51;;;;;;;3.95;2.05;;;;;;;31.88;69.79;100618.41;5061931;28;70880;-42
2023/07/08 09:44:33;;;;;;;3.03;1.70;;;;;;;31.91;71.17;100618.78;5041772;28;65595;-43
2023/07/08 09:47:24;;;;;;;4.88;1.83;;;;;;;31.35;71.87;100542.22;5060298;28;70223;-41
2023/07/08 09:49:57;;;;;;;2.13;1.80;;;;;;;31.86;71.90;100618.63;5052816;28;64922;-47
2023/07/08 09:52:31;;;;;;;3.53;2.30;;;;;;;31.43;71.76;100532.97;5060420;28;69310;-42
2023/07/08 09:55:02;;;;;;;4.95;1.90;;;;;;;31.76;72.40;100586.66;5060701;28;66139;-42
2023/07/08 09:57:34;;;;;;;5.82;2.10;;;;;;;31.91;71.66;100618.78;5040251;28;69962;-42
2023/07/08 10:00:13;;;;;;;4.22;1.50;;;;;;;31.74;71.69;100599.63;5059634;28;65834;-42
2023/07/08 10:02:54;;;;;;;6.15;1.95;;;;;;;31.93;71.65;100630.22;5056661;28;69820;-39
2023/07/08 10:05:41;;;;;;;2.88;1.63;;;;;;;31.87;71.67;100631.09;5058277;28;65142;-43
2023/07/08 10:08:23;;;;;;;1.98;1.27;;;;;;;31.92;71.11;100633.97;5054587;28;70007;-42
2023/07/08 10:11:10;;;;;;;2.30;1.42;;;;;;;31.36;71.22;100548.47;5057064;28;65351;-42
2023/07/08 10:13:47;;;;;;;2.17;1.23;;;;;;;30.85;70.98;100480.22;5056428;28;69293;-43
2023/07/08 10:16:38;;;;;;;1.75;1.33;;;;;;;31.90;71.16;100657.78;5056239;28;67037;-41
2023/07/08 10:19:19;;;;;;;2.45;1.23;;;;;;;31.82;70.53;100658.13;5057139;28;70211;-41
2023/07/08 10:22:42;;;;;;;3.90;1.10;;;;;;;31.79;71.15;100661.31;5056837;28;66847;-43
2023/07/08 10:25:19;;;;;;;1.88;1.05;;;;;;;31.91;70.63;100661.31;5054327;28;69612;-43
2023/07/08 10:28:17;;;;;;;1.35;1.02;;;;;;;32.17;69.45;100668.22;5056675;28;66912;-44
2023/07/08 10:31:19;;;;;;;1.80;1.02;;;;;;;31.67;68.93;100581.78;5057271;28;68178;-44
2023/07/08 10:33:59;;;;;;;3.22;1.38;;;;;;;32.39;68.37;100671.22;5055251;28;65641;-44
2023/07/08 10:36:43;;;;;;;1.90;1.15;;;;;;;32.45;68.23;100662.94;5057915;28;70259;-45
2023/07/08 10:39:20;;;;;;;3.25;1.38;;;;;;;32.49;68.11;100661.44;5058525;28;65877;-45
2023/07/08 10:42:01;;;;;;;1.90;1.30;;;;;;;32.34;68.31;100636.63;5056728;28;69895;-45
2023/07/08 10:45:02;;;;;;;2.80;1.40;;;;;;;32.50;68.02;100651.41;5053967;28;66016;-44
2023/07/08 10:47:44;;;;;;;2.78;1.83;;;;;;;32.55;67.85;100658.84;5058744;28;70707;-44
2023/07/08 10:50:40;;;;;;;4.75;1.77;;;;;;;32.58;68.06;100666.53;5041065;28;65794;-45
2023/07/08 10:53:44;;;;;;;5.10;2.42;;;;;;;32.47;68.79;100668.16;5056669;28;70174;-44
2023/07/08 10:56:28;;;;;;;5.75;2.47;;;;;;;32.02;71.16;100661.38;5057898;28;66596;-43
2023/07/08 10:59:34;;;;;;;2.42;2.15;;;;;;;31.96;71.57;100685.91;5059357;28;69800;-43
2023/07/08 11:02:29;;;;;;;2.55;2.35;;;;;;;31.97;71.06;100680.22;5063525;28;66495;-43
2023/07/08 11:05:11;;;;;;;3.17;2.50;;;;;;;31.97;71.57;100680.22;5062909;28;70977;-43
2023/07/08 11:08:05;;;;;;;;;;;;;;;31.74;72.20;100685.56;5063988;28;66399;-43
2023/07/08 11:10:56;;;;;;;2.50;2.13;;;;;;;31.91;71.85;100691.16;5048970;28;70341;-42
2023/07/08 11:13:53;;;;;;;1.90;1.73;;;;;;;31.94;71.76;100696.16;5052549;28;65712;-45
2023/07/08 11:16:34;;;;;;;3.13;2.47;;;;;;;31.95;71.68;100712.19;5058487;28;70491;-44
2023/07/08 11:19:30;;;;;;;3.05;2.05;;;;;;;31.27;71.50;100599.44;5047649;28;66577;-43
2023/07/08 11:22:08;;;;;;;3.38;2.35;;;;;;;31.96;71.46;100722.00;5059815;28;70430;-42
2023/07/08 11:24:53;;;;;;;4.32;1.83;;;;;;;31.44;71.44;100651.16;5055855;28;66160;-43
2023/07/08 11:27:35;;;;;;;3.08;2.38;;;;;;;31.37;71.54;100643.13;5050092;28;70205;-44
2023/07/08 11:30:21;;;;;;;3.60;2.92;;;;;;;31.86;71.16;100732.53;5048460;28;65737;-43
2023/07/08 11:33:04;;;;;;;2.60;2.40;;;;;;;31.82;71.47;100734.06;5056456;28;69399;-42
2023/07/08 11:35:44;;;;;;;2.85;2.60;;;;;;;31.11;71.87;100636.13;5060613;28;65469;-42
2023/07/08 11:38:19;;;;;;;3.97;3.17;;;;;;;31.64;72.21;100709.69;5059427;28;69726;-42
2023/07/08 11:41:18;;;;;;;3.25;2.95;;;;;;;31.77;72.63;100751.03;5057206;28;66693;-42
2023/07/08 11:44:12;;;;;;;4.72;2.42;;;;;;;31.09;72.67;100640.13;5057868;28;69784;-43
2023/07/08 11:46:55;;;;;;;2.95;2.65;;;;;;;30.91;72.23;100597.63;5055624;28;66957;-45
2023/07/08 11:49:26;;;;;;;10.77;3.15;;;;;;;31.93;72.91;100744.16;5054929;28;70559;-45
2023/07/08 11:51:58;;;;;;;4.85;3.05;;;;;;;31.89;73.13;100745.63;5054518;28;66170;-45
2023/07/08 11:54:31;;;;;;;4.28;2.72;;;;;;;31.91;73.16;100746.28;5059754;28;69750;-43
2023/07/08 11:57:09;;;;;;;2.85;2.65;;;;;;;31.92;73.01;100756.06;5051320;28;66510;-44
2023/07/08 11:59:41;;;;;;;6.63;2.55;;;;;;;31.83;72.58;100760.94;5057028;28;69501;-45
2023/07/08 12:02:18;;;;;;;5.90;2.60;;;;;;;31.91;72.34;100789.69;5057585;28;66360;-43
2023/07/08 12:05:13;;;;;;;8.35;2.88;;;;;;;31.79;72.58;100775.22;5047122;28;69484;-43